createdAt,value
2018-03-20T00:00:35.973Z,72.40
2018-03-20T00:03:03.446Z,72.60
2018-03-20T00:05:30.913Z,72.40
2018-03-20T00:07:58.380Z,72.90
2018-03-20T00:10:25.841Z,73.00
2018-03-20T00:12:53.317Z,72.50
2018-03-20T00:15:21.545Z,73.00
2018-03-20T00:17:49.016Z,72.90
2018-03-20T00:20:16.477Z,72.90
2018-03-20T00:22:44.013Z,72.80
2018-03-20T00:25:11.486Z,73.60
2018-03-20T00:27:38.952Z,74.00
2018-03-20T00:30:06.417Z,73.50
2018-03-20T00:32:33.885Z,73.80
2018-03-20T00:35:01.347Z,74.40
2018-03-20T00:37:28.805Z,74.20
2018-03-20T00:39:56.276Z,74.20
2018-03-20T00:42:23.756Z,74.40
2018-03-20T00:44:51.227Z,73.60
2018-03-20T00:47:18.699Z,74.00
2018-03-20T00:49:46.148Z,74.10
2018-03-20T00:52:13.620Z,73.90
2018-03-20T00:54:41.093Z,73.90
2018-03-20T00:57:09.327Z,73.90
2018-03-20T00:59:36.788Z,73.80
2018-03-20T01:02:04.265Z,73.70
2018-03-20T01:04:31.717Z,73.60
2018-03-20T01:06:59.192Z,73.70
2018-03-20T01:09:26.642Z,74.20
2018-03-20T01:11:54.111Z,74.00
2018-03-20T01:14:21.580Z,74.60
2018-03-20T01:16:49.068Z,74.50
2018-03-20T01:19:16.530Z,75.10
2018-03-20T01:21:43.999Z,74.90
2018-03-20T01:24:12.243Z,76.40
2018-03-20T01:26:39.716Z,76.30
2018-03-20T01:29:07.182Z,76.20
2018-03-20T01:31:34.699Z,76.00
2018-03-20T01:34:02.150Z,76.00
2018-03-20T01:36:29.599Z,76.40
2018-03-20T01:38:57.833Z,77.00
2018-03-20T01:41:25.309Z,76.90
2018-03-20T01:43:52.789Z,77.30
2018-03-20T01:46:20.253Z,76.80
2018-03-20T01:48:47.744Z,77.00
2018-03-20T01:51:21.691Z,77.20
2018-03-20T01:53:49.162Z,77.20
2018-03-20T01:56:16.632Z,77.20
2018-03-20T01:58:44.116Z,77.70
2018-03-20T02:01:11.585Z,77.10
2018-03-20T02:03:39.058Z,77.40
2018-03-20T02:06:07.289Z,77.30
2018-03-20T02:08:34.755Z,77.40
2018-03-20T02:11:02.222Z,77.60
2018-03-20T02:13:29.695Z,77.60
2018-03-20T02:15:57.135Z,77.70
2018-03-20T02:20:57.668Z,78.00
2018-03-20T02:23:25.141Z,78.20
2018-03-20T02:25:52.597Z,77.70
2018-03-20T02:28:20.069Z,78.00
2018-03-20T02:30:47.563Z,78.30
2018-03-20T02:33:15.036Z,78.10
2018-03-20T02:35:42.522Z,78.60
2018-03-20T02:38:10.009Z,78.20
2018-03-20T02:40:37.473Z,78.40
2018-03-20T02:43:04.937Z,78.80
2018-03-20T02:45:32.397Z,78.50
2018-03-20T02:47:59.869Z,78.60
2018-03-20T02:50:27.331Z,78.70
2018-03-20T02:52:54.802Z,79.10
2018-03-20T02:55:22.288Z,78.90
2018-03-20T02:57:49.749Z,79.30
2018-03-20T03:00:17.983Z,79.10
2018-03-20T03:02:46.210Z,79.40
2018-03-20T03:05:14.442Z,79.40
2018-03-20T03:07:41.914Z,79.30
2018-03-20T03:10:09.371Z,79.20
2018-03-20T03:12:36.833Z,79.10
2018-03-20T03:15:04.306Z,79.50
2018-03-20T03:17:31.783Z,78.60
2018-03-20T03:19:59.287Z,78.20
2018-03-20T03:22:26.757Z,78.60
2018-03-20T03:24:54.236Z,78.20
2018-03-20T03:27:21.719Z,77.90
2018-03-20T03:29:49.197Z,77.70
2018-03-20T03:32:16.680Z,77.80
2018-03-20T03:34:44.911Z,78.60
2018-03-20T03:37:12.447Z,78.40
2018-03-20T03:39:39.902Z,78.60
2018-03-20T03:42:08.595Z,78.70
2018-03-20T03:44:36.066Z,79.50
2018-03-20T03:47:03.528Z,80.10
2018-03-20T03:49:31.020Z,80.00
2018-03-20T03:51:59.240Z,80.50
2018-03-20T03:54:27.476Z,80.50
2018-03-20T03:56:54.940Z,80.50
2018-03-20T03:59:22.402Z,80.20
2018-03-20T04:01:49.864Z,80.30
2018-03-20T04:04:17.331Z,81.00
2018-03-20T04:06:44.804Z,81.60
2018-03-20T04:09:12.277Z,80.90
2018-03-20T04:11:39.741Z,80.80
2018-03-20T04:14:07.214Z,80.70
2018-03-20T04:16:35.434Z,81.50
2018-03-20T04:19:02.909Z,81.50
2018-03-20T04:21:30.383Z,81.60
2018-03-20T04:23:57.856Z,81.70
2018-03-20T04:26:25.331Z,81.50
2018-03-20T04:28:52.794Z,81.00
2018-03-20T04:31:20.277Z,80.60
2018-03-20T04:33:48.509Z,81.70
2018-03-20T04:36:15.988Z,81.70
2018-03-20T04:38:43.453Z,81.70
2018-03-20T04:41:10.917Z,82.30
2018-03-20T04:43:38.380Z,82.10
2018-03-20T04:46:05.858Z,82.00
2018-03-20T04:48:33.320Z,82.30
2018-03-20T04:51:00.791Z,82.40
2018-03-20T04:53:29.024Z,82.00
2018-03-20T04:55:56.492Z,82.00
2018-03-20T04:58:23.963Z,81.70
2018-03-20T05:00:51.441Z,81.80
2018-03-20T05:03:18.907Z,82.00
2018-03-20T05:05:46.380Z,81.90
2018-03-20T05:08:13.838Z,81.70
2018-03-20T05:10:41.293Z,81.90
2018-03-20T05:15:42.613Z,81.20
2018-03-20T05:18:10.095Z,81.90
2018-03-20T05:23:49.231Z,81.90
2018-03-20T05:26:16.705Z,81.70
2018-03-20T05:28:44.172Z,81.30
2018-03-20T05:31:11.640Z,82.10
2018-03-20T05:33:39.106Z,82.20
2018-03-20T05:36:06.576Z,82.30
2018-03-20T05:38:34.037Z,82.50
2018-03-20T05:41:01.505Z,82.20
2018-03-20T05:43:29.734Z,81.90
2018-03-20T05:45:57.204Z,81.90
2018-03-20T05:48:41.508Z,82.60
2018-03-20T05:51:24.632Z,81.90
2018-03-20T05:53:52.868Z,81.50
2018-03-20T05:56:20.333Z,81.40
2018-03-20T05:58:47.793Z,81.80
2018-03-20T06:01:15.270Z,81.40
2018-03-20T06:03:42.758Z,81.50
2018-03-20T06:06:10.997Z,82.00
2018-03-20T06:08:38.485Z,82.70
2018-03-20T06:11:05.961Z,81.90
2018-03-20T06:13:33.404Z,81.40
2018-03-20T06:16:05.423Z,81.50
2018-03-20T06:18:32.884Z,81.90
2018-03-20T06:21:00.379Z,81.50
2018-03-20T06:23:27.845Z,81.30
2018-03-20T06:25:55.308Z,81.00
2018-03-20T06:28:22.809Z,81.10
2018-03-20T06:30:50.229Z,81.00
2018-03-20T06:33:17.703Z,81.00
2018-03-20T06:35:45.163Z,81.10
2018-03-20T06:38:12.638Z,80.70
2018-03-20T06:40:40.099Z,80.80
2018-03-20T06:43:07.561Z,81.00
2018-03-20T06:45:35.033Z,80.90
2018-03-20T06:48:03.262Z,80.80
2018-03-20T06:50:30.733Z,80.60
2018-03-20T06:52:58.217Z,80.60
2018-03-20T06:55:25.677Z,80.60
2018-03-20T06:57:53.157Z,80.40
2018-03-20T07:00:20.625Z,80.30
2018-03-20T07:02:48.866Z,80.40
2018-03-20T07:05:16.334Z,80.40
2018-03-20T07:07:43.801Z,79.90
2018-03-20T07:10:11.257Z,79.60
2018-03-20T07:12:38.734Z,79.70
2018-03-20T07:15:06.200Z,80.00
2018-03-20T07:17:33.659Z,79.80
2018-03-20T07:20:01.131Z,79.70
2018-03-20T07:22:28.619Z,79.70
2018-03-20T07:24:56.853Z,79.20
2018-03-20T07:27:24.334Z,79.30
2018-03-20T07:29:51.802Z,78.90
2018-03-20T07:32:19.268Z,79.20
2018-03-20T07:34:46.729Z,78.40
2018-03-20T07:37:14.214Z,78.30
2018-03-20T07:39:42.436Z,78.60
2018-03-20T07:42:09.904Z,78.60
2018-03-20T07:44:37.851Z,78.00
2018-03-20T07:47:05.823Z,77.60
2018-03-20T07:49:33.489Z,77.70
2018-03-20T07:52:00.953Z,77.60
2018-03-20T07:54:28.425Z,77.50
2018-03-20T07:56:55.888Z,77.60
2018-03-20T07:59:23.378Z,77.80
2018-03-20T08:01:50.843Z,77.70
2018-03-20T08:04:18.313Z,76.30
2018-03-20T08:06:45.797Z,75.50
2018-03-20T08:09:14.033Z,75.00
2018-03-20T08:11:41.497Z,75.00
2018-03-20T08:14:08.974Z,74.70
2018-03-20T08:16:36.454Z,75.00
2018-03-20T08:19:04.707Z,74.10
2018-03-20T08:21:32.165Z,73.80
2018-03-20T08:23:59.645Z,74.30
2018-03-20T08:26:27.106Z,73.70
2018-03-20T08:28:54.578Z,73.50
2018-03-20T08:31:22.055Z,72.30
2018-03-20T08:33:50.302Z,72.30
2018-03-20T08:36:17.768Z,72.20
2018-03-20T08:38:45.245Z,71.60
2018-03-20T08:41:12.701Z,71.40
2018-03-20T08:43:40.182Z,71.20
2018-03-20T08:46:07.645Z,71.70
2018-03-20T08:48:35.110Z,72.60
2018-03-20T08:51:03.341Z,71.90
2018-03-20T08:53:30.826Z,71.90
2018-03-20T08:55:58.293Z,71.80
2018-03-20T08:58:25.762Z,72.40
2018-03-20T09:00:53.237Z,71.70
2018-03-20T09:03:20.703Z,72.50
2018-03-20T09:05:48.204Z,72.10
2018-03-20T09:08:15.663Z,72.10
2018-03-20T09:10:43.125Z,71.60
2018-03-20T09:13:10.607Z,71.90
2018-03-20T09:15:38.053Z,72.40
2018-03-20T09:18:05.516Z,72.60
2018-03-20T09:20:32.975Z,72.40
2018-03-20T09:23:00.448Z,71.40
2018-03-20T09:25:27.920Z,72.10
2018-03-20T09:27:55.377Z,71.40
2018-03-20T09:30:22.845Z,71.10
2018-03-20T09:32:50.314Z,71.30
2018-03-20T09:35:17.776Z,71.00
2018-03-20T09:37:45.240Z,71.50
2018-03-20T09:40:12.711Z,71.50
2018-03-20T09:42:40.165Z,70.90
2018-03-20T09:45:07.638Z,70.50
2018-03-20T09:47:35.127Z,70.20
2018-03-20T09:50:02.574Z,69.80
2018-03-20T09:52:30.040Z,69.90
2018-03-20T09:54:57.499Z,67.40
2018-03-20T09:57:24.968Z,67.50
2018-03-20T09:59:52.422Z,67.10
2018-03-20T10:02:19.889Z,68.00
2018-03-20T10:04:47.356Z,67.60
2018-03-20T10:07:14.820Z,66.70
2018-03-20T10:09:42.276Z,66.40
2018-03-20T10:12:09.733Z,65.50
2018-03-20T10:14:37.196Z,65.80
2018-03-20T10:17:04.687Z,66.60
2018-03-20T10:19:32.950Z,65.70
2018-03-20T10:22:00.573Z,65.60
2018-03-20T10:24:28.027Z,64.50
2018-03-20T10:26:55.512Z,64.40
2018-03-20T10:29:22.980Z,64.90
2018-03-20T10:31:50.454Z,64.70
2018-03-20T10:34:17.910Z,64.50
2018-03-20T10:36:45.393Z,64.30
2018-03-20T10:39:13.625Z,62.00
2018-03-20T10:41:41.089Z,62.30
2018-03-20T10:44:09.327Z,63.60
2018-03-20T10:46:37.561Z,62.60
2018-03-20T10:49:05.031Z,62.60
2018-03-20T10:51:32.495Z,60.80
2018-03-20T10:54:00.739Z,58.70
2018-03-20T10:56:28.214Z,59.20
2018-03-20T10:58:55.689Z,59.00
2018-03-20T11:01:28.843Z,58.10
2018-03-20T11:03:57.073Z,56.70
2018-03-20T11:06:24.541Z,56.70
2018-03-20T11:08:52.029Z,57.90
2018-03-20T11:11:19.493Z,56.10
2018-03-20T11:13:46.966Z,55.00
2018-03-20T11:16:15.189Z,52.60
2018-03-20T11:18:42.656Z,52.60
2018-03-20T11:21:10.103Z,52.40
2018-03-20T11:23:37.579Z,51.80
2018-03-20T11:26:05.047Z,53.00
2018-03-20T11:28:32.501Z,52.80
2018-03-20T11:30:59.963Z,49.70
2018-03-20T11:33:27.441Z,50.70
2018-03-20T11:35:54.901Z,51.10
2018-03-20T11:38:22.373Z,50.80
2018-03-20T11:40:49.829Z,51.60
2018-03-20T11:43:17.296Z,51.20
2018-03-20T11:45:55.942Z,51.90
2018-03-20T11:48:24.165Z,50.00
2018-03-20T11:50:51.630Z,49.90
2018-03-20T11:53:19.073Z,51.50
2018-03-20T11:55:46.537Z,50.50
2018-03-20T11:58:13.998Z,49.70
2018-03-20T12:00:41.460Z,49.90
2018-03-20T12:03:08.926Z,51.70
2018-03-20T12:05:36.389Z,51.10
2018-03-20T12:08:15.580Z,51.60
2018-03-20T12:10:43.057Z,50.30
2018-03-20T12:13:11.285Z,51.20
2018-03-20T12:15:38.762Z,51.20
2018-03-20T12:18:06.231Z,53.30
2018-03-20T12:20:33.713Z,50.60
2018-03-20T12:23:01.941Z,53.60
2018-03-20T12:25:29.416Z,53.60
2018-03-20T12:27:56.873Z,55.50
2018-03-20T12:30:24.345Z,53.90
2018-03-20T12:32:51.805Z,55.40
2018-03-20T12:35:19.281Z,54.10
2018-03-20T12:37:46.777Z,54.70
2018-03-20T12:40:14.193Z,56.30
2018-03-20T12:42:41.643Z,54.90
2018-03-20T12:45:09.097Z,52.90
2018-03-20T12:47:36.558Z,52.60
2018-03-20T12:50:04.025Z,54.50
2018-03-20T12:52:31.497Z,53.50
2018-03-20T12:54:58.961Z,56.00
2018-03-20T12:57:26.437Z,54.40
2018-03-20T12:59:53.892Z,55.70
2018-03-20T13:02:21.378Z,53.70
2018-03-20T13:04:48.847Z,53.50
2018-03-20T13:07:16.302Z,55.20
2018-03-20T13:09:43.785Z,54.40
2018-03-20T13:12:12.019Z,55.50
2018-03-20T13:14:39.466Z,55.50
2018-03-20T13:17:06.916Z,55.10
2018-03-20T13:19:34.364Z,55.20
2018-03-20T13:22:01.831Z,55.00
2018-03-20T13:24:29.294Z,56.00
2018-03-20T13:26:56.753Z,56.60
2018-03-20T13:29:24.204Z,55.70
2018-03-20T13:31:53.001Z,57.00
2018-03-20T13:34:21.220Z,54.60
2018-03-20T13:36:48.685Z,54.70
2018-03-20T13:39:16.137Z,55.80
2018-03-20T13:41:43.636Z,54.00
2018-03-20T13:44:11.098Z,56.40
2018-03-20T13:46:38.556Z,56.90
2018-03-20T13:49:06.016Z,56.60
2018-03-20T13:51:33.481Z,56.20
2018-03-20T13:54:00.932Z,56.60
2018-03-20T13:56:28.396Z,57.00
2018-03-20T13:58:55.842Z,56.30
2018-03-20T14:01:23.309Z,57.00
2018-03-20T14:03:50.774Z,57.60
2018-03-20T14:06:18.244Z,58.50
2018-03-20T14:08:45.696Z,59.60
2018-03-20T14:11:13.163Z,59.60
2018-03-20T14:13:40.621Z,60.30
2018-03-20T14:16:08.090Z,60.70
2018-03-20T14:18:35.564Z,62.80
2018-03-20T14:21:03.235Z,63.60
2018-03-20T14:23:30.707Z,64.20
2018-03-20T14:25:58.746Z,65.80
2018-03-20T14:28:27.044Z,68.40
2018-03-20T14:30:54.506Z,68.40
2018-03-20T14:33:22.683Z,71.10
2018-03-20T14:35:50.137Z,74.20
2018-03-20T14:38:17.604Z,76.20
2018-03-20T14:40:45.276Z,77.00
2018-03-20T14:43:13.218Z,77.90
2018-03-20T14:45:41.189Z,77.50
2018-03-20T14:48:09.162Z,77.80
2018-03-20T14:50:37.137Z,78.80
2018-03-20T14:53:04.867Z,77.00
2018-03-20T14:55:32.327Z,76.70
2018-03-20T14:57:59.779Z,77.30
2018-03-20T15:00:27.232Z,76.70
2018-03-20T15:02:54.693Z,77.10
2018-03-20T15:05:22.146Z,76.90
2018-03-20T15:07:49.597Z,77.90
2018-03-20T15:10:17.062Z,78.10
2018-03-20T15:12:44.536Z,79.20
2018-03-20T15:15:12.002Z,80.00
2018-03-20T15:17:39.463Z,79.90
2018-03-20T15:20:06.926Z,79.10
2018-03-20T15:22:34.405Z,78.90
2018-03-20T15:25:01.863Z,78.90
2018-03-20T15:27:29.324Z,77.90
2018-03-20T15:29:56.794Z,79.10
2018-03-20T15:32:24.278Z,77.50
2018-03-20T15:34:52.502Z,78.10
2018-03-20T15:37:21.865Z,78.00
2018-03-20T15:39:50.093Z,77.90
2018-03-20T15:42:17.744Z,77.90
2018-03-20T15:44:45.201Z,78.50
2018-03-20T15:47:12.689Z,78.90
2018-03-20T15:49:40.150Z,79.10
2018-03-20T15:52:07.623Z,78.90
2018-03-20T15:54:35.090Z,79.40
2018-03-20T15:57:02.585Z,78.70
2018-03-20T15:59:30.030Z,78.70
2018-03-20T16:01:57.498Z,78.20
2018-03-20T16:04:24.961Z,78.70
2018-03-20T16:06:52.414Z,79.10
2018-03-20T16:09:19.920Z,79.00
2018-03-20T16:11:47.355Z,79.10
2018-03-20T16:14:15.607Z,79.40
2018-03-20T16:16:43.057Z,79.30
2018-03-20T16:19:10.530Z,80.40
2018-03-20T16:21:37.989Z,79.60
2018-03-20T16:24:05.450Z,79.70
2018-03-20T16:26:32.911Z,79.50
2018-03-20T16:29:00.373Z,80.30
2018-03-20T16:31:27.835Z,80.10
2018-03-20T16:33:55.297Z,79.90
2018-03-20T16:36:22.752Z,79.50
2018-03-20T16:38:50.216Z,80.20
2018-03-20T16:41:17.699Z,79.80
2018-03-20T16:43:45.166Z,80.10
2018-03-20T16:46:12.630Z,80.20
2018-03-20T16:48:41.065Z,80.00
2018-03-20T16:51:08.520Z,80.00
2018-03-20T16:53:35.989Z,80.80
2018-03-20T16:56:03.427Z,81.60
2018-03-20T16:58:31.740Z,82.50
2018-03-20T17:00:59.147Z,82.60
2018-03-20T17:03:26.607Z,83.40
2018-03-20T17:05:54.981Z,84.20
2018-03-20T17:08:22.461Z,84.90
2018-03-20T17:10:49.928Z,85.20
2018-03-20T17:13:17.402Z,86.30
2018-03-20T17:15:45.637Z,90.20
2018-03-20T17:18:13.126Z,90.10
2018-03-20T17:20:40.590Z,90.40
2018-03-20T17:23:08.076Z,91.20
2018-03-20T17:25:36.305Z,92.30
2018-03-20T17:28:03.773Z,92.20
2018-03-20T17:30:31.247Z,91.60
2018-03-20T17:32:58.702Z,91.80
2018-03-20T17:35:31.871Z,92.20
2018-03-20T17:37:59.331Z,92.90
2018-03-20T17:40:27.581Z,93.90
2018-03-20T17:45:29.792Z,94.20
2018-03-20T17:47:57.254Z,94.10
2018-03-20T17:50:24.713Z,94.20
2018-03-20T17:52:52.183Z,94.30
2018-03-20T17:55:19.665Z,94.90
2018-03-20T17:57:47.124Z,95.20
2018-03-20T18:00:14.596Z,95.40
2018-03-20T18:02:42.074Z,95.60
2018-03-20T18:05:09.536Z,95.50
2018-03-20T18:07:37.005Z,95.30
2018-03-20T18:10:05.261Z,95.70
2018-03-20T18:12:32.735Z,96.00
2018-03-20T18:15:00.206Z,95.60
2018-03-20T18:17:27.670Z,95.40
2018-03-20T18:19:55.141Z,95.40
2018-03-20T18:22:22.609Z,95.50
2018-03-20T18:24:50.087Z,95.40
2018-03-20T18:27:18.322Z,95.40
2018-03-20T18:29:45.803Z,95.40
2018-03-20T18:32:13.280Z,95.30
2018-03-20T18:34:41.545Z,95.40
2018-03-20T18:37:09.032Z,95.40
2018-03-20T18:39:37.261Z,94.30
2018-03-20T18:42:04.714Z,94.30
2018-03-20T18:44:32.186Z,94.10
2018-03-20T18:46:59.654Z,94.40
2018-03-20T18:49:27.125Z,94.40
2018-03-20T18:51:54.571Z,93.80
2018-03-20T18:54:22.033Z,93.60
2018-03-20T18:56:49.499Z,93.50
2018-03-20T18:59:16.977Z,94.10
2018-03-20T19:01:44.445Z,93.90
2018-03-20T19:04:11.902Z,94.00
2018-03-20T19:06:39.374Z,94.40
2018-03-20T19:09:06.837Z,94.70
2018-03-20T19:11:34.315Z,94.30
2018-03-20T19:14:02.533Z,95.00
2018-03-20T19:16:30.012Z,94.60
2018-03-20T19:18:57.470Z,95.00
2018-03-20T19:21:24.942Z,94.90
2018-03-20T19:23:52.425Z,94.60
2018-03-20T19:26:19.905Z,94.70
2018-03-20T19:28:47.362Z,94.50
2018-03-20T19:31:14.840Z,94.60
2018-03-20T19:33:43.067Z,94.30
2018-03-20T19:36:10.533Z,94.30
2018-03-20T19:38:38.997Z,94.50
2018-03-20T19:41:06.469Z,94.20
2018-03-20T19:43:34.829Z,94.10
2018-03-20T19:46:02.310Z,94.20
2018-03-20T19:48:29.767Z,94.10
2018-03-20T19:50:57.248Z,94.40
2018-03-20T19:53:24.713Z,94.20
2018-03-20T19:55:52.177Z,94.40
2018-03-20T19:58:19.650Z,94.20
2018-03-20T20:00:47.125Z,94.40
2018-03-20T20:03:14.595Z,94.10
2018-03-20T20:05:42.048Z,94.00
2018-03-20T20:08:09.523Z,94.20
2018-03-20T20:10:37.004Z,94.20
2018-03-20T20:13:05.230Z,93.70
2018-03-20T20:15:32.710Z,93.70
2018-03-20T20:18:00.165Z,93.70
2018-03-20T20:20:27.693Z,93.40
2018-03-20T20:22:55.103Z,93.80
2018-03-20T20:25:22.568Z,93.90
2018-03-20T20:27:50.038Z,93.40
2018-03-20T20:30:17.517Z,93.60
2018-03-20T20:32:45.759Z,93.60
2018-03-20T20:35:13.221Z,93.50
2018-03-20T20:37:40.704Z,93.50
2018-03-20T20:40:08.164Z,93.40
2018-03-20T20:42:35.628Z,93.30
2018-03-20T20:45:03.093Z,93.20
2018-03-20T20:47:30.545Z,93.10
2018-03-20T20:49:58.009Z,93.00
2018-03-20T20:52:25.473Z,93.00
2018-03-20T20:54:52.942Z,92.90
2018-03-20T20:57:20.431Z,93.00
2018-03-20T20:59:48.645Z,93.00
2018-03-20T21:02:16.112Z,93.00
2018-03-20T21:04:43.582Z,92.90
2018-03-20T21:07:11.056Z,93.00
2018-03-20T21:09:38.518Z,92.70
2018-03-20T21:12:05.996Z,92.80
2018-03-20T21:14:33.448Z,92.70
2018-03-20T21:17:00.928Z,92.90
2018-03-20T21:19:28.428Z,92.90
2018-03-20T21:21:55.944Z,92.90
2018-03-20T21:24:23.357Z,92.70
2018-03-20T21:26:50.829Z,92.60
2018-03-20T21:29:19.060Z,92.80
2018-03-20T21:31:47.294Z,92.80
2018-03-20T21:34:14.757Z,92.80
2018-03-20T21:36:42.212Z,92.90
2018-03-20T21:39:09.682Z,92.90
2018-03-20T21:41:37.141Z,92.80
2018-03-20T21:44:04.610Z,92.80
2018-03-20T21:46:32.077Z,92.90
2018-03-20T21:48:59.541Z,92.80
2018-03-20T21:51:27.010Z,92.60
2018-03-20T21:53:54.496Z,92.80
2018-03-20T21:56:21.985Z,92.80
2018-03-20T21:58:50.225Z,93.00
2018-03-20T22:01:17.689Z,93.00
2018-03-20T22:03:45.167Z,92.70
2018-03-20T22:06:12.624Z,92.90
2018-03-20T22:08:40.085Z,92.70
2018-03-20T22:11:07.546Z,92.80
2018-03-20T22:13:35.015Z,92.70
2018-03-20T22:16:02.490Z,92.60
2018-03-20T22:18:29.949Z,93.10
2018-03-20T22:20:58.183Z,92.50
2018-03-20T22:23:25.647Z,92.40
2018-03-20T22:25:53.127Z,92.30
2018-03-20T22:28:21.580Z,92.30
2018-03-20T22:30:49.048Z,92.10
2018-03-20T22:33:16.522Z,92.40
2018-03-20T22:35:44.001Z,92.30
2018-03-20T22:38:11.470Z,92.10
2018-03-20T22:40:38.930Z,91.90
2018-03-20T22:43:06.397Z,91.80
2018-03-20T22:45:33.856Z,92.10
2018-03-20T22:48:01.315Z,92.60
2018-03-20T22:50:28.760Z,92.60
2018-03-20T22:52:56.225Z,92.30
2018-03-20T22:55:23.686Z,92.10
2018-03-20T22:57:51.154Z,92.30
2018-03-20T23:00:28.436Z,92.20
2018-03-20T23:02:55.902Z,92.10
2018-03-20T23:05:23.365Z,92.00
2018-03-20T23:07:50.868Z,92.10
2018-03-20T23:10:18.317Z,92.10
2018-03-20T23:12:45.788Z,92.20
2018-03-20T23:15:13.309Z,92.50
2018-03-20T23:17:40.727Z,92.40
2018-03-20T23:20:08.189Z,92.30
2018-03-20T23:22:35.653Z,92.00
2018-03-20T23:25:03.121Z,92.40
2018-03-20T23:27:30.597Z,92.30
2018-03-20T23:29:58.814Z,92.80
2018-03-20T23:32:26.282Z,92.80
2018-03-20T23:34:53.737Z,92.90
2018-03-20T23:37:21.197Z,92.90
2018-03-20T23:39:48.665Z,92.90
2018-03-20T23:42:16.141Z,93.00
2018-03-20T23:44:43.621Z,93.30
2018-03-20T23:47:11.086Z,93.10
2018-03-20T23:49:38.550Z,93.40
2018-03-20T23:52:06.019Z,93.50
2018-03-20T23:54:33.493Z,93.30
2018-03-20T23:57:01.717Z,93.00
2018-03-20T23:59:29.191Z,93.00
